createdAt,value
2018-06-09T00:00:17.987Z,19.80
2018-06-09T00:02:46.311Z,19.80
2018-06-09T00:05:16.260Z,19.90
2018-06-09T00:07:44.596Z,19.90
2018-06-09T00:10:12.941Z,19.90
2018-06-09T00:12:41.263Z,19.90
2018-06-09T00:15:09.578Z,19.90
2018-06-09T00:17:37.934Z,19.90
2018-06-09T00:20:06.252Z,20.00
2018-06-09T00:22:34.597Z,20.00
2018-06-09T00:25:02.924Z,20.00
2018-06-09T00:27:31.265Z,20.00
2018-06-09T00:29:59.586Z,19.90
2018-06-09T00:32:27.937Z,20.00
2018-06-09T00:34:56.264Z,20.00
2018-06-09T00:37:24.610Z,20.00
2018-06-09T00:39:52.925Z,20.00
2018-06-09T00:42:21.274Z,20.00
2018-06-09T00:44:49.594Z,20.00
2018-06-09T00:47:17.947Z,20.00
2018-06-09T00:49:46.260Z,20.00
2018-06-09T00:52:14.602Z,20.00
2018-06-09T00:54:42.913Z,20.00
2018-06-09T00:57:11.258Z,20.00
2018-06-09T00:59:39.566Z,20.00
2018-06-09T01:02:07.910Z,20.00
2018-06-09T01:04:36.224Z,20.00
2018-06-09T01:07:04.578Z,20.00
2018-06-09T01:09:32.905Z,20.00
2018-06-09T01:12:01.263Z,20.00
2018-06-09T01:14:29.597Z,20.00
2018-06-09T01:16:57.962Z,20.00
2018-06-09T01:19:26.282Z,19.90
2018-06-09T01:21:54.614Z,19.90
2018-06-09T01:24:22.970Z,19.90
2018-06-09T01:26:51.305Z,19.90
2018-06-09T01:29:19.654Z,19.90
2018-06-09T01:31:47.988Z,19.90
2018-06-09T01:34:16.336Z,19.90
2018-06-09T01:36:44.658Z,20.00
2018-06-09T01:39:13.011Z,20.00
2018-06-09T01:41:41.331Z,20.00
2018-06-09T01:44:09.685Z,20.00
2018-06-09T01:46:38.005Z,20.00
2018-06-09T01:49:06.352Z,20.00
2018-06-09T01:51:34.675Z,20.00
2018-06-09T01:54:03.025Z,20.00
2018-06-09T01:56:31.349Z,20.00
2018-06-09T01:58:59.692Z,20.00
2018-06-09T02:01:28.012Z,20.00
2018-06-09T02:03:56.437Z,20.00
2018-06-09T02:06:24.792Z,20.00
2018-06-09T02:08:53.181Z,20.00
2018-06-09T02:11:21.513Z,20.00
2018-06-09T02:13:49.868Z,20.00
2018-06-09T02:16:18.189Z,20.00
2018-06-09T02:18:46.551Z,20.00
2018-06-09T02:21:14.877Z,20.00
2018-06-09T02:23:43.232Z,20.00
2018-06-09T02:26:11.559Z,20.00
2018-06-09T02:28:39.915Z,20.00
2018-06-09T02:31:08.233Z,20.00
2018-06-09T02:33:36.584Z,20.00
2018-06-09T02:36:04.907Z,20.00
2018-06-09T02:38:33.236Z,20.00
2018-06-09T02:41:01.581Z,20.00
2018-06-09T02:43:29.901Z,20.00
2018-06-09T02:45:58.264Z,20.00
2018-06-09T02:48:26.582Z,20.00
2018-06-09T02:50:54.933Z,20.00
2018-06-09T02:53:23.262Z,20.00
2018-06-09T02:55:51.628Z,20.00
2018-06-09T02:58:19.953Z,20.00
2018-06-09T03:00:48.299Z,20.10
2018-06-09T03:03:16.621Z,20.10
2018-06-09T03:05:44.987Z,20.10
2018-06-09T03:08:13.321Z,20.10
2018-06-09T03:10:41.682Z,20.10
2018-06-09T03:13:10.005Z,20.10
2018-06-09T03:15:38.358Z,20.10
2018-06-09T03:18:06.704Z,20.00
2018-06-09T03:20:35.072Z,20.10
2018-06-09T03:23:03.389Z,20.00
2018-06-09T03:25:31.735Z,20.00
2018-06-09T03:28:00.075Z,20.00
2018-06-09T03:30:28.425Z,20.00
2018-06-09T03:32:56.742Z,20.00
2018-06-09T03:35:25.093Z,20.00
2018-06-09T03:37:53.413Z,20.00
2018-06-09T03:40:21.761Z,20.00
2018-06-09T03:42:50.074Z,20.10
2018-06-09T03:45:18.434Z,20.00
2018-06-09T03:47:46.765Z,20.10
2018-06-09T03:50:15.124Z,20.10
2018-06-09T03:52:43.449Z,20.10
2018-06-09T03:55:11.004Z,20.10
2018-06-09T03:57:39.356Z,20.10
2018-06-09T04:00:07.676Z,20.20
2018-06-09T04:02:36.026Z,20.20
2018-06-09T04:05:04.346Z,20.20
2018-06-09T04:07:32.694Z,20.30
2018-06-09T04:10:01.013Z,20.30
2018-06-09T04:12:29.366Z,20.30
2018-06-09T04:14:57.697Z,20.20
2018-06-09T04:17:26.056Z,20.20
2018-06-09T04:19:54.395Z,20.10
2018-06-09T04:22:22.755Z,20.20
2018-06-09T04:24:51.083Z,20.10
2018-06-09T04:27:19.429Z,20.20
2018-06-09T04:29:47.752Z,20.20
2018-06-09T04:32:16.092Z,20.30
2018-06-09T04:34:44.410Z,20.30
2018-06-09T04:37:12.769Z,20.40
2018-06-09T04:39:41.086Z,20.40
2018-06-09T04:42:09.446Z,20.50
2018-06-09T04:44:37.773Z,20.60
2018-06-09T04:47:06.124Z,20.60
2018-06-09T04:49:34.444Z,20.60
2018-06-09T04:52:02.808Z,20.70
2018-06-09T04:54:31.141Z,20.70
2018-06-09T04:56:59.462Z,20.70
2018-06-09T04:59:27.815Z,20.70
2018-06-09T05:01:56.149Z,20.70
2018-06-09T05:04:24.512Z,20.70
2018-06-09T05:06:52.834Z,20.70
2018-06-09T05:09:21.184Z,20.70
2018-06-09T05:11:49.505Z,20.70
2018-06-09T05:14:17.854Z,20.70
2018-06-09T05:16:46.187Z,20.70
2018-06-09T05:19:14.553Z,20.70
2018-06-09T05:21:42.886Z,20.70
2018-06-09T05:24:11.237Z,20.60
2018-06-09T05:26:39.576Z,20.60
2018-06-09T05:29:07.946Z,20.70
2018-06-09T05:31:36.273Z,20.70
2018-06-09T05:34:04.616Z,20.80
2018-06-09T05:36:32.938Z,20.80
2018-06-09T05:39:00.522Z,20.80
2018-06-09T05:41:28.853Z,21.00
2018-06-09T05:43:57.206Z,21.10
2018-06-09T05:46:25.535Z,21.20
2018-06-09T05:48:53.901Z,21.30
2018-06-09T05:51:21.469Z,21.30
2018-06-09T05:53:49.827Z,21.40
2018-06-09T05:56:18.171Z,21.40
2018-06-09T05:58:46.489Z,21.50
2018-06-09T06:01:14.846Z,21.60
2018-06-09T06:03:43.172Z,21.70
2018-06-09T06:06:11.533Z,21.70
2018-06-09T06:08:40.400Z,21.80
2018-06-09T06:11:08.752Z,21.70
2018-06-09T06:13:37.073Z,21.70
2018-06-09T06:16:05.431Z,21.60
2018-06-09T06:18:33.750Z,21.60
2018-06-09T06:21:02.113Z,21.50
2018-06-09T06:23:30.436Z,21.50
2018-06-09T06:25:58.801Z,21.50
2018-06-09T06:28:27.127Z,21.60
2018-06-09T06:30:55.486Z,21.60
2018-06-09T06:33:23.808Z,21.50
2018-06-09T06:35:52.160Z,21.50
2018-06-09T06:38:20.494Z,21.50
2018-06-09T06:40:48.850Z,21.50
2018-06-09T06:43:17.203Z,21.60
2018-06-09T06:45:45.561Z,21.60
2018-06-09T06:48:13.890Z,21.70
2018-06-09T06:50:42.257Z,21.70
2018-06-09T06:53:10.591Z,21.70
2018-06-09T06:55:38.916Z,21.80
2018-06-09T06:58:07.260Z,21.90
2018-06-09T07:00:35.578Z,22.00
2018-06-09T07:03:03.930Z,22.20
2018-06-09T07:05:32.249Z,22.40
2018-06-09T07:08:00.622Z,22.50
2018-06-09T07:10:28.949Z,22.50
2018-06-09T07:12:57.315Z,22.50
2018-06-09T07:15:25.634Z,22.60
2018-06-09T07:17:53.995Z,22.70
2018-06-09T07:20:22.318Z,22.70
2018-06-09T07:22:50.720Z,22.80
2018-06-09T07:25:19.048Z,22.90
2018-06-09T07:27:47.474Z,23.00
2018-06-09T07:30:15.820Z,23.00
2018-06-09T07:32:44.181Z,22.90
2018-06-09T07:35:11.801Z,22.90
2018-06-09T07:37:40.121Z,22.90
2018-06-09T07:40:08.461Z,22.90
2018-06-09T07:42:44.065Z,23.10
2018-06-09T07:45:12.393Z,23.30
2018-06-09T07:47:40.776Z,23.50
2018-06-09T07:50:09.101Z,23.70
2018-06-09T07:52:37.426Z,23.70
2018-06-09T07:55:06.010Z,23.80
2018-06-09T07:57:35.056Z,23.70
2018-06-09T08:00:03.408Z,23.80
2018-06-09T08:02:31.742Z,23.80
2018-06-09T08:05:00.110Z,23.70
2018-06-09T08:07:28.445Z,23.60
2018-06-09T08:09:56.800Z,23.50
2018-06-09T08:12:25.183Z,23.40
2018-06-09T08:14:53.539Z,23.30
2018-06-09T08:17:21.094Z,23.30
2018-06-09T08:19:49.447Z,23.10
2018-06-09T08:22:17.837Z,23.20
2018-06-09T08:24:46.327Z,23.30
2018-06-09T08:27:14.733Z,23.50
2018-06-09T08:29:43.192Z,23.60
2018-06-09T08:32:11.512Z,23.70
2018-06-09T08:34:39.881Z,23.70
2018-06-09T08:37:08.197Z,23.80
2018-06-09T08:39:36.509Z,23.90
2018-06-09T08:42:04.895Z,23.90
2018-06-09T08:44:33.209Z,24.00
2018-06-09T08:47:01.560Z,24.20
2018-06-09T08:49:29.886Z,24.40
2018-06-09T08:51:58.355Z,24.40
2018-06-09T08:54:26.676Z,24.10
2018-06-09T08:56:55.083Z,24.00
2018-06-09T08:59:23.391Z,23.90
2018-06-09T09:01:51.745Z,23.80
2018-06-09T09:04:20.078Z,23.90
2018-06-09T09:06:47.674Z,23.90
2018-06-09T09:09:16.010Z,24.50
2018-06-09T09:11:44.445Z,24.70
2018-06-09T09:14:12.853Z,24.90
2018-06-09T09:16:41.267Z,24.90
2018-06-09T09:19:09.685Z,24.90
2018-06-09T09:21:38.292Z,24.80
2018-06-09T09:24:06.621Z,24.70
2018-06-09T09:26:34.981Z,24.60
2018-06-09T09:29:03.300Z,24.60
2018-06-09T09:31:31.628Z,24.60
2018-06-09T09:33:59.977Z,24.70
2018-06-09T09:36:28.301Z,25.00
2018-06-09T09:38:56.669Z,25.40
2018-06-09T09:41:24.986Z,25.90
2018-06-09T09:43:53.357Z,26.10
2018-06-09T09:46:21.733Z,26.20
2018-06-09T09:48:50.065Z,26.20
2018-06-09T09:51:17.625Z,26.20
2018-06-09T09:53:45.985Z,26.00
2018-06-09T09:56:14.327Z,26.00
2018-06-09T09:58:42.680Z,26.20
2018-06-09T10:01:11.012Z,26.20
2018-06-09T10:03:39.359Z,26.40
2018-06-09T10:06:08.313Z,26.70
2018-06-09T10:08:36.673Z,27.10
2018-06-09T10:11:05.004Z,27.40
2018-06-09T10:13:33.352Z,27.60
2018-06-09T10:16:01.686Z,27.50
2018-06-09T10:18:30.044Z,27.30
2018-06-09T10:20:58.379Z,27.00
2018-06-09T10:23:26.732Z,26.80
2018-06-09T10:25:55.052Z,26.70
2018-06-09T10:28:23.401Z,26.80
2018-06-09T10:30:50.956Z,26.80
2018-06-09T10:33:19.313Z,26.90
2018-06-09T10:35:47.650Z,27.00
2018-06-09T10:38:16.000Z,26.90
2018-06-09T10:40:44.321Z,26.60
2018-06-09T10:43:12.671Z,26.40
2018-06-09T10:45:40.994Z,26.40
2018-06-09T10:48:09.348Z,26.40
2018-06-09T10:50:37.688Z,26.30
2018-06-09T10:53:06.046Z,26.20
2018-06-09T10:55:34.372Z,26.10
2018-06-09T10:58:02.731Z,26.00
2018-06-09T11:00:31.050Z,25.90
2018-06-09T11:02:59.536Z,25.90
2018-06-09T11:05:27.907Z,26.00
2018-06-09T11:07:56.235Z,26.20
2018-06-09T11:10:24.598Z,26.50
2018-06-09T11:12:52.985Z,26.70
2018-06-09T11:15:21.490Z,26.70
2018-06-09T11:17:49.910Z,26.70
2018-06-09T11:20:18.324Z,26.60
2018-06-09T11:22:46.651Z,26.50
2018-06-09T11:25:15.008Z,26.40
2018-06-09T11:27:43.328Z,26.40
2018-06-09T11:30:11.690Z,26.40
2018-06-09T11:32:40.021Z,26.50
2018-06-09T11:35:08.377Z,26.40
2018-06-09T11:37:36.780Z,26.50
2018-06-09T11:40:05.143Z,26.70
2018-06-09T11:42:33.601Z,27.00
2018-06-09T11:45:02.004Z,27.20
2018-06-09T11:47:30.331Z,27.30
2018-06-09T11:49:58.687Z,27.50
2018-06-09T11:52:27.001Z,27.50
2018-06-09T11:54:55.356Z,27.40
2018-06-09T11:57:23.688Z,27.30
2018-06-09T11:59:52.038Z,27.40
2018-06-09T12:02:20.376Z,27.50
2018-06-09T12:04:47.966Z,27.50
2018-06-09T12:07:16.302Z,28.00
2018-06-09T12:09:44.651Z,28.30
2018-06-09T12:12:13.037Z,28.60
2018-06-09T12:14:41.394Z,28.80
2018-06-09T12:17:09.830Z,29.10
2018-06-09T12:19:38.138Z,29.30
2018-06-09T12:22:06.500Z,29.40
2018-06-09T12:24:34.872Z,29.40
2018-06-09T12:27:03.245Z,29.30
2018-06-09T12:29:31.562Z,29.20
2018-06-09T12:31:59.921Z,29.30
2018-06-09T12:34:28.254Z,29.40
2018-06-09T12:36:56.610Z,29.40
2018-06-09T12:39:24.975Z,29.20
2018-06-09T12:41:53.312Z,29.00
2018-06-09T12:44:21.653Z,28.80
2018-06-09T12:46:50.001Z,28.60
2018-06-09T12:49:18.337Z,28.70
2018-06-09T12:51:46.690Z,29.00
2018-06-09T12:54:15.025Z,29.50
2018-06-09T12:56:43.423Z,29.90
2018-06-09T12:59:11.774Z,29.90
2018-06-09T13:01:39.379Z,29.90
2018-06-09T13:04:07.711Z,29.00
2018-06-09T13:06:36.025Z,29.20
2018-06-09T13:09:04.398Z,29.20
2018-06-09T13:11:31.944Z,29.20
2018-06-09T13:14:00.348Z,29.60
2018-06-09T13:16:28.677Z,29.70
2018-06-09T13:18:57.034Z,29.60
2018-06-09T13:21:25.352Z,29.50
2018-06-09T13:23:53.702Z,29.20
2018-06-09T13:26:21.258Z,29.10
2018-06-09T13:28:49.612Z,28.50
2018-06-09T13:31:17.945Z,28.20
2018-06-09T13:33:46.298Z,28.20
2018-06-09T13:36:14.639Z,28.80
2018-06-09T13:38:43.013Z,28.90
2018-06-09T13:41:11.604Z,29.00
2018-06-09T13:43:40.329Z,29.10
2018-06-09T13:46:09.005Z,29.30
2018-06-09T13:48:37.358Z,29.60
2018-06-09T13:51:04.917Z,29.60
2018-06-09T13:53:33.268Z,29.60
2018-06-09T13:56:01.607Z,29.30
2018-06-09T13:58:29.976Z,29.10
2018-06-09T14:00:58.310Z,29.10
2018-06-09T14:03:26.669Z,29.30
2018-06-09T14:05:55.001Z,29.70
2018-06-09T14:08:23.364Z,30.30
2018-06-09T14:10:51.739Z,30.70
2018-06-09T14:13:20.253Z,31.10
2018-06-09T14:15:48.623Z,31.00
2018-06-09T14:18:17.014Z,30.50
2018-06-09T14:20:45.454Z,29.90
2018-06-09T14:23:13.776Z,29.40
2018-06-09T14:25:42.151Z,29.00
2018-06-09T14:28:10.483Z,28.80
2018-06-09T14:30:38.841Z,28.70
2018-06-09T14:33:07.164Z,28.70
2018-06-09T14:35:34.763Z,28.70
2018-06-09T14:38:03.091Z,28.90
2018-06-09T14:40:31.467Z,29.30
2018-06-09T14:42:59.778Z,29.40
2018-06-09T14:45:28.140Z,29.30
2018-06-09T14:47:56.461Z,29.20
2018-06-09T14:50:24.814Z,29.40
2018-06-09T14:52:53.133Z,29.90
2018-06-09T14:55:20.733Z,29.90
2018-06-09T14:57:48.293Z,30.20
2018-06-09T15:00:16.656Z,30.10
2018-06-09T15:02:44.983Z,29.80
2018-06-09T15:05:13.337Z,29.50
2018-06-09T15:07:41.668Z,29.30
2018-06-09T15:10:10.022Z,29.40
2018-06-09T15:12:38.353Z,29.90
2018-06-09T15:15:06.705Z,30.40
2018-06-09T15:17:35.070Z,30.40
2018-06-09T15:20:03.401Z,30.00
2018-06-09T15:22:31.758Z,29.30
2018-06-09T15:25:00.083Z,28.90
2018-06-09T15:27:28.447Z,28.40
2018-06-09T15:29:56.765Z,28.40
2018-06-09T15:32:25.124Z,28.70
2018-06-09T15:34:53.443Z,28.90
2018-06-09T15:37:21.789Z,29.00
2018-06-09T15:39:50.137Z,29.00
2018-06-09T15:42:18.503Z,28.70
2018-06-09T15:44:46.062Z,28.70
2018-06-09T15:47:14.424Z,28.70
2018-06-09T15:49:42.745Z,28.70
2018-06-09T15:52:11.203Z,28.80
2018-06-09T15:54:39.530Z,29.00
2018-06-09T15:57:10.226Z,29.00
2018-06-09T15:59:38.587Z,29.00
2018-06-09T16:02:06.933Z,29.00
2018-06-09T16:04:35.255Z,29.20
2018-06-09T16:07:03.607Z,29.50
2018-06-09T16:09:31.933Z,29.80
2018-06-09T16:12:00.277Z,30.10
2018-06-09T16:14:27.830Z,30.10
2018-06-09T16:16:56.182Z,30.50
2018-06-09T16:19:24.513Z,30.20
2018-06-09T16:21:52.878Z,30.10
2018-06-09T16:24:21.198Z,30.10
2018-06-09T16:26:49.519Z,30.00
2018-06-09T16:29:17.890Z,29.90
2018-06-09T16:31:46.217Z,29.70
2018-06-09T16:34:14.589Z,29.70
2018-06-09T16:36:42.925Z,29.90
2018-06-09T16:39:11.294Z,30.00
2018-06-09T16:41:39.618Z,30.20
2018-06-09T16:44:08.002Z,30.20
2018-06-09T16:46:36.322Z,30.20
2018-06-09T16:49:04.680Z,30.00
2018-06-09T16:51:33.022Z,30.10
2018-06-09T16:54:01.391Z,29.90
2018-06-09T16:56:28.946Z,29.90
2018-06-09T16:58:57.292Z,30.00
2018-06-09T17:01:25.613Z,30.20
2018-06-09T17:03:53.957Z,30.30
2018-06-09T17:06:22.287Z,30.30
2018-06-09T17:08:50.637Z,30.20
2018-06-09T17:11:19.016Z,30.20
2018-06-09T17:13:47.555Z,30.40
2018-06-09T17:16:15.963Z,30.50
2018-06-09T17:18:44.444Z,30.80
2018-06-09T17:21:12.778Z,30.90
2018-06-09T17:23:41.134Z,31.10
2018-06-09T17:26:09.497Z,31.10
2018-06-09T17:28:37.814Z,31.20
2018-06-09T17:31:06.153Z,31.40
2018-06-09T17:33:34.490Z,31.30
2018-06-09T17:36:02.840Z,31.40
2018-06-09T17:38:31.186Z,31.30
2018-06-09T17:40:59.549Z,31.20
2018-06-09T17:43:27.918Z,31.00
2018-06-09T17:45:56.263Z,30.60
2018-06-09T17:48:24.086Z,30.60
2018-06-09T17:50:52.585Z,29.40
2018-06-09T17:53:20.980Z,28.70
2018-06-09T17:55:48.712Z,28.70
2018-06-09T17:58:16.414Z,28.10
2018-06-09T18:00:45.057Z,27.20
2018-06-09T18:03:13.375Z,26.90
2018-06-09T18:05:42.067Z,26.60
2018-06-09T18:08:10.447Z,26.30
2018-06-09T18:10:38.921Z,26.00
2018-06-09T18:13:07.249Z,25.80
2018-06-09T18:15:35.597Z,25.50
2018-06-09T18:18:03.921Z,25.30
2018-06-09T18:20:31.557Z,25.30
2018-06-09T18:22:59.951Z,24.90
2018-06-09T18:25:28.230Z,24.60
2018-06-09T18:27:55.830Z,24.60
2018-06-09T18:30:24.211Z,24.30
2018-06-09T18:32:52.631Z,24.10
2018-06-09T18:35:20.982Z,24.00
2018-06-09T18:37:49.340Z,23.80
2018-06-09T18:40:17.842Z,23.70
2018-06-09T18:42:46.192Z,23.60
2018-06-09T18:45:14.550Z,23.50
2018-06-09T18:47:43.009Z,23.50
2018-06-09T18:50:11.340Z,23.40
2018-06-09T18:52:39.705Z,23.40
2018-06-09T18:55:07.321Z,23.40
2018-06-09T18:57:35.982Z,23.20
2018-06-09T19:00:04.343Z,23.10
2018-06-09T19:02:32.767Z,23.00
2018-06-09T19:05:01.107Z,23.00
2018-06-09T19:07:29.520Z,22.90
2018-06-09T19:09:57.898Z,22.90
2018-06-09T19:12:26.437Z,22.90
2018-06-09T19:14:54.765Z,22.90
2018-06-09T19:17:23.160Z,22.90
2018-06-09T19:19:50.706Z,22.90
2018-06-09T19:22:19.065Z,22.90
2018-06-09T19:24:47.408Z,22.90
2018-06-09T19:27:15.808Z,23.00
2018-06-09T19:29:44.193Z,23.00
2018-06-09T19:32:12.526Z,22.90
2018-06-09T19:34:40.886Z,22.80
2018-06-09T19:37:09.206Z,22.80
2018-06-09T19:39:37.575Z,22.80
2018-06-09T19:42:05.963Z,22.70
2018-06-09T19:44:34.309Z,22.60
2018-06-09T19:47:01.862Z,22.60
2018-06-09T19:49:30.381Z,22.30
2018-06-09T19:51:58.725Z,22.20
2018-06-09T19:54:27.109Z,22.10
2018-06-09T19:56:55.467Z,22.00
2018-06-09T19:59:23.823Z,21.90
2018-06-09T20:01:52.134Z,21.80
2018-06-09T20:04:20.491Z,21.70
2018-06-09T20:06:48.809Z,21.70
2018-06-09T20:09:17.257Z,21.70
2018-06-09T20:11:45.763Z,21.70
2018-06-09T20:14:14.311Z,21.60
2018-06-09T20:16:42.632Z,21.50
2018-06-09T20:19:10.995Z,21.40
2018-06-09T20:21:39.330Z,21.40
2018-06-09T20:24:07.676Z,21.40
2018-06-09T20:26:36.012Z,21.30
2018-06-09T20:29:04.372Z,21.20
2018-06-09T20:31:33.729Z,21.10
2018-06-09T20:34:02.092Z,21.00
2018-06-09T20:36:30.489Z,21.00
2018-06-09T20:38:58.809Z,21.00
2018-06-09T20:41:27.196Z,20.90
2018-06-09T20:43:55.605Z,20.80
2018-06-09T20:46:23.965Z,20.80
2018-06-09T20:48:52.302Z,20.70
2018-06-09T20:51:19.947Z,20.70
2018-06-09T20:53:48.289Z,20.70
2018-06-09T20:56:16.648Z,20.70
2018-06-09T20:58:44.969Z,20.70
2018-06-09T21:01:13.326Z,20.70
2018-06-09T21:03:41.659Z,20.70
2018-06-09T21:06:10.005Z,20.70
2018-06-09T21:08:38.335Z,20.60
2018-06-09T21:11:06.691Z,20.60
2018-06-09T21:13:35.009Z,20.60
2018-06-09T21:16:03.365Z,20.50
2018-06-09T21:18:31.721Z,20.50
2018-06-09T21:21:00.070Z,20.40
2018-06-09T21:23:28.390Z,20.40
2018-06-09T21:25:56.718Z,20.30
2018-06-09T21:28:25.064Z,20.30
2018-06-09T21:30:53.388Z,20.20
2018-06-09T21:33:21.740Z,20.30
2018-06-09T21:35:54.281Z,20.20
2018-06-09T21:38:22.625Z,20.10
2018-06-09T21:40:50.942Z,20.10
2018-06-09T21:43:19.286Z,20.10
2018-06-09T21:45:47.605Z,20.00
2018-06-09T21:48:15.993Z,20.00
2018-06-09T21:50:44.306Z,19.90
2018-06-09T21:53:12.659Z,19.90
2018-06-09T21:55:40.979Z,19.80
2018-06-09T21:58:09.358Z,19.80
2018-06-09T22:00:37.693Z,19.70
2018-06-09T22:03:06.041Z,19.70
2018-06-09T22:05:34.363Z,19.60
2018-06-09T22:08:02.719Z,19.60
2018-06-09T22:10:31.042Z,19.50
2018-06-09T22:12:59.409Z,19.50
2018-06-09T22:15:27.729Z,19.40
2018-06-09T22:17:56.072Z,19.40
2018-06-09T22:20:24.390Z,19.30
2018-06-09T22:22:52.738Z,19.20
2018-06-09T22:25:21.069Z,19.20
2018-06-09T22:27:48.664Z,19.10
2018-06-09T22:30:16.981Z,19.10
2018-06-09T22:32:45.347Z,19.00
2018-06-09T22:35:13.678Z,19.00
2018-06-09T22:37:42.037Z,18.90
2018-06-09T22:40:10.387Z,18.80
2018-06-09T22:42:38.758Z,18.80
2018-06-09T22:45:07.081Z,18.80
2018-06-09T22:47:35.399Z,18.70
2018-06-09T22:50:03.756Z,18.70
2018-06-09T22:52:32.077Z,18.60
2018-06-09T22:55:00.433Z,18.50
2018-06-09T22:57:28.764Z,18.50
2018-06-09T22:59:57.141Z,18.40
2018-06-09T23:02:25.555Z,18.40
2018-06-09T23:04:53.852Z,18.40
2018-06-09T23:07:22.175Z,18.30
2018-06-09T23:09:50.530Z,18.30
2018-06-09T23:12:18.862Z,18.30
2018-06-09T23:14:47.206Z,18.20
2018-06-09T23:17:15.542Z,18.20
2018-06-09T23:19:43.911Z,18.20
2018-06-09T23:22:12.241Z,18.20
2018-06-09T23:24:40.606Z,18.10
2018-06-09T23:27:08.936Z,18.10
2018-06-09T23:29:37.277Z,18.00
2018-06-09T23:32:05.606Z,18.00
2018-06-09T23:34:33.961Z,17.90
2018-06-09T23:37:02.281Z,17.80
2018-06-09T23:39:30.642Z,17.80
2018-06-09T23:41:58.980Z,17.80
2018-06-09T23:44:27.331Z,17.70
2018-06-09T23:46:55.667Z,17.70
2018-06-09T23:49:24.018Z,17.70
2018-06-09T23:51:52.341Z,17.70
2018-06-09T23:54:20.699Z,17.60
2018-06-09T23:56:49.024Z,17.60
2018-06-09T23:59:17.373Z,17.60
